HTDA

Julius Nyerere International Airport

Dar es Salaam, Tanzania
METAR HTDA 251300Z 12016KT 9999 SCT025 31/23 Q1013 NOSIG
Observed Flight Rules
Sep-25 @ 13:00 UTC (2 hours ago) Visual Flight Rules
Wind Visibility Clouds
120° at 16 knots 10,000+ meters
  • Scattered at 2,500' AGL
Temperatures Readings
Current 31°C / 88°F
Dewpoint 23°C / 73°F
Humidity 62%
Altimeter 29.91" Hg
Pressure 1013 hPa
Elevation 55
METAR HTDA 251300Z 12016KT 9999 SCT025 31/23 Q1013 NOSIG
Observed Flight Rules
Sep-25 @ 13:00 UTC
(2 hours ago)
VFR
Wind Visibility
120° at 16 knots 10,000+ meters
Clouds
  • Scattered at 2,500' AGL
Temperature Dewpoint
31°C / 88°F 23°C / 73°F
Humidity Altimeter Pressure
62% 29.91" Hg 1013 hPa